sensor_id;sensor_type;location;lat;lon;timestamp;P1;durP1;ratioP1;P2;durP2;ratioP2
43933;SDS011;59081;42.706;23.306;2024-01-30T00:04:30;10.27;;;5.45;;
43933;SDS011;59081;42.706;23.306;2024-01-30T00:09:30;7.97;;;4.90;;
43933;SDS011;59081;42.706;23.306;2024-01-30T00:14:31;5.60;;;4.05;;
43933;SDS011;59081;42.706;23.306;2024-01-30T00:19:35;8.65;;;5.15;;
43933;SDS011;59081;42.706;23.306;2024-01-30T00:24:35;7.47;;;4.20;;
43933;SDS011;59081;42.706;23.306;2024-01-30T00:29:36;6.07;;;4.03;;
43933;SDS011;59081;42.706;23.306;2024-01-30T00:34:36;8.07;;;4.32;;
43933;SDS011;59081;42.706;23.306;2024-01-30T00:39:37;6.72;;;4.45;;
43933;SDS011;59081;42.706;23.306;2024-01-30T00:44:37;10.95;;;4.05;;
43933;SDS011;59081;42.706;23.306;2024-01-30T00:49:38;7.32;;;4.22;;
43933;SDS011;59081;42.706;23.306;2024-01-30T00:54:39;7.70;;;3.88;;
43933;SDS011;59081;42.706;23.306;2024-01-30T00:59:39;7.10;;;3.50;;
43933;SDS011;59081;42.706;23.306;2024-01-30T01:04:40;6.85;;;3.97;;
43933;SDS011;59081;42.706;23.306;2024-01-30T01:09:41;8.70;;;4.53;;
43933;SDS011;59081;42.706;23.306;2024-01-30T01:14:41;5.50;;;2.65;;
43933;SDS011;59081;42.706;23.306;2024-01-30T01:19:42;6.60;;;4.22;;
43933;SDS011;59081;42.706;23.306;2024-01-30T01:24:42;7.55;;;4.75;;
43933;SDS011;59081;42.706;23.306;2024-01-30T01:29:43;7.55;;;4.00;;
43933;SDS011;59081;42.706;23.306;2024-01-30T01:34:43;6.70;;;4.05;;
43933;SDS011;59081;42.706;23.306;2024-01-30T01:39:44;6.90;;;4.00;;
43933;SDS011;59081;42.706;23.306;2024-01-30T01:44:45;6.68;;;4.28;;
43933;SDS011;59081;42.706;23.306;2024-01-30T01:49:46;6.00;;;3.65;;
43933;SDS011;59081;42.706;23.306;2024-01-30T01:54:47;7.45;;;4.57;;
43933;SDS011;59081;42.706;23.306;2024-01-30T01:59:48;9.02;;;5.25;;
43933;SDS011;59081;42.706;23.306;2024-01-30T02:04:48;10.20;;;5.30;;
43933;SDS011;59081;42.706;23.306;2024-01-30T02:09:49;7.93;;;4.35;;
43933;SDS011;59081;42.706;23.306;2024-01-30T02:14:49;6.13;;;3.83;;
43933;SDS011;59081;42.706;23.306;2024-01-30T02:19:51;6.50;;;3.65;;
43933;SDS011;59081;42.706;23.306;2024-01-30T02:24:52;8.27;;;4.72;;
43933;SDS011;59081;42.706;23.306;2024-01-30T02:29:52;7.60;;;3.42;;
43933;SDS011;59081;42.706;23.306;2024-01-30T02:34:53;6.15;;;3.17;;
43933;SDS011;59081;42.706;23.306;2024-01-30T02:39:53;7.95;;;4.88;;
43933;SDS011;59081;42.706;23.306;2024-01-30T02:44:54;4.22;;;3.13;;
43933;SDS011;59081;42.706;23.306;2024-01-30T02:49:54;6.32;;;4.20;;
43933;SDS011;59081;42.706;23.306;2024-01-30T02:54:55;7.13;;;4.50;;
43933;SDS011;59081;42.706;23.306;2024-01-30T02:59:56;6.95;;;4.30;;
43933;SDS011;59081;42.706;23.306;2024-01-30T03:04:56;7.88;;;4.53;;
43933;SDS011;59081;42.706;23.306;2024-01-30T03:09:57;6.43;;;4.25;;
43933;SDS011;59081;42.706;23.306;2024-01-30T03:14:57;6.07;;;4.30;;
43933;SDS011;59081;42.706;23.306;2024-01-30T03:19:58;11.00;;;4.53;;
43933;SDS011;59081;42.706;23.306;2024-01-30T03:24:58;8.73;;;3.95;;
43933;SDS011;59081;42.706;23.306;2024-01-30T03:29:59;9.55;;;4.20;;
43933;SDS011;59081;42.706;23.306;2024-01-30T03:35:00;6.90;;;4.22;;
43933;SDS011;59081;42.706;23.306;2024-01-30T03:40:01;6.38;;;3.83;;
43933;SDS011;59081;42.706;23.306;2024-01-30T03:45:03;7.83;;;2.53;;
43933;SDS011;59081;42.706;23.306;2024-01-30T03:50:04;7.28;;;5.35;;
43933;SDS011;59081;42.706;23.306;2024-01-30T03:55:05;5.63;;;3.45;;
43933;SDS011;59081;42.706;23.306;2024-01-30T04:00:06;4.82;;;3.05;;
43933;SDS011;59081;42.706;23.306;2024-01-30T04:05:07;8.00;;;3.90;;
43933;SDS011;59081;42.706;23.306;2024-01-30T04:10:09;5.28;;;3.30;;
43933;SDS011;59081;42.706;23.306;2024-01-30T04:15:10;6.82;;;3.78;;
43933;SDS011;59081;42.706;23.306;2024-01-30T04:20:14;5.07;;;3.38;;
43933;SDS011;59081;42.706;23.306;2024-01-30T04:25:17;4.32;;;3.05;;
43933;SDS011;59081;42.706;23.306;2024-01-30T04:30:18;9.52;;;4.32;;
43933;SDS011;59081;42.706;23.306;2024-01-30T04:35:18;6.97;;;3.70;;
43933;SDS011;59081;42.706;23.306;2024-01-30T04:40:23;6.22;;;3.42;;
43933;SDS011;59081;42.706;23.306;2024-01-30T04:45:24;6.53;;;3.65;;
43933;SDS011;59081;42.706;23.306;2024-01-30T04:50:24;5.88;;;3.28;;
43933;SDS011;59081;42.706;23.306;2024-01-30T04:55:26;11.82;;;4.28;;
43933;SDS011;59081;42.706;23.306;2024-01-30T05:00:27;8.52;;;3.88;;
43933;SDS011;59081;42.706;23.306;2024-01-30T05:05:27;10.98;;;4.47;;
43933;SDS011;59081;42.706;23.306;2024-01-30T05:10:28;10.10;;;5.10;;
43933;SDS011;59081;42.706;23.306;2024-01-30T05:15:29;10.82;;;4.20;;
43933;SDS011;59081;42.706;23.306;2024-01-30T05:20:30;9.13;;;4.80;;
43933;SDS011;59081;42.706;23.306;2024-01-30T05:25:30;9.95;;;4.90;;
43933;SDS011;59081;42.706;23.306;2024-01-30T05:30:31;9.38;;;5.57;;
43933;SDS011;59081;42.706;23.306;2024-01-30T05:35:31;8.55;;;4.63;;
43933;SDS011;59081;42.706;23.306;2024-01-30T05:40:32;11.18;;;5.70;;
43933;SDS011;59081;42.706;23.306;2024-01-30T05:45:33;8.18;;;4.43;;
43933;SDS011;59081;42.706;23.306;2024-01-30T05:50:35;5.45;;;3.08;;
43933;SDS011;59081;42.706;23.306;2024-01-30T05:55:36;7.38;;;5.00;;
43933;SDS011;59081;42.706;23.306;2024-01-30T06:00:36;5.47;;;3.90;;
43933;SDS011;59081;42.706;23.306;2024-01-30T06:05:37;15.23;;;4.53;;
43933;SDS011;59081;42.706;23.306;2024-01-30T06:10:37;6.43;;;3.92;;
43933;SDS011;59081;42.706;23.306;2024-01-30T06:15:39;8.10;;;4.22;;
43933;SDS011;59081;42.706;23.306;2024-01-30T06:20:39;6.05;;;3.35;;
43933;SDS011;59081;42.706;23.306;2024-01-30T06:25:40;9.48;;;5.40;;
43933;SDS011;59081;42.706;23.306;2024-01-30T06:30:41;7.78;;;4.10;;
43933;SDS011;59081;42.706;23.306;2024-01-30T06:35:41;10.20;;;4.88;;
43933;SDS011;59081;42.706;23.306;2024-01-30T06:40:42;12.18;;;4.63;;
43933;SDS011;59081;42.706;23.306;2024-01-30T06:50:47;13.43;;;3.67;;
43933;SDS011;59081;42.706;23.306;2024-01-30T06:55:49;7.90;;;3.95;;
43933;SDS011;59081;42.706;23.306;2024-01-30T07:00:49;5.88;;;3.83;;
43933;SDS011;59081;42.706;23.306;2024-01-30T07:05:51;15.25;;;5.38;;
43933;SDS011;59081;42.706;23.306;2024-01-30T07:10:52;8.63;;;4.18;;
43933;SDS011;59081;42.706;23.306;2024-01-30T07:15:55;7.85;;;4.07;;
43933;SDS011;59081;42.706;23.306;2024-01-30T07:20:55;6.78;;;4.00;;
43933;SDS011;59081;42.706;23.306;2024-01-30T07:25:57;6.18;;;4.05;;
43933;SDS011;59081;42.706;23.306;2024-01-30T07:30:57;8.02;;;4.85;;
43933;SDS011;59081;42.706;23.306;2024-01-30T07:35:58;8.77;;;4.38;;
43933;SDS011;59081;42.706;23.306;2024-01-30T07:40:59;5.97;;;3.13;;
43933;SDS011;59081;42.706;23.306;2024-01-30T07:45:59;6.45;;;3.72;;
43933;SDS011;59081;42.706;23.306;2024-01-30T07:51:02;7.53;;;3.83;;
43933;SDS011;59081;42.706;23.306;2024-01-30T07:56:04;10.30;;;3.38;;
43933;SDS011;59081;42.706;23.306;2024-01-30T08:01:05;10.80;;;4.53;;
43933;SDS011;59081;42.706;23.306;2024-01-30T08:06:06;5.00;;;3.05;;
43933;SDS011;59081;42.706;23.306;2024-01-30T08:11:07;5.97;;;3.13;;
43933;SDS011;59081;42.706;23.306;2024-01-30T08:16:07;5.72;;;3.25;;
43933;SDS011;59081;42.706;23.306;2024-01-30T08:21:08;5.05;;;3.05;;
43933;SDS011;59081;42.706;23.306;2024-01-30T08:26:09;6.80;;;2.75;;
43933;SDS011;59081;42.706;23.306;2024-01-30T08:31:10;7.85;;;3.38;;
43933;SDS011;59081;42.706;23.306;2024-01-30T08:36:12;5.63;;;3.28;;
43933;SDS011;59081;42.706;23.306;2024-01-30T08:41:12;5.60;;;3.40;;
43933;SDS011;59081;42.706;23.306;2024-01-30T08:46:13;10.45;;;4.47;;
43933;SDS011;59081;42.706;23.306;2024-01-30T08:51:17;16.20;;;3.65;;
43933;SDS011;59081;42.706;23.306;2024-01-30T08:56:18;9.95;;;4.90;;
43933;SDS011;59081;42.706;23.306;2024-01-30T09:01:18;4.47;;;2.67;;
43933;SDS011;59081;42.706;23.306;2024-01-30T09:06:19;3.88;;;2.60;;
43933;SDS011;59081;42.706;23.306;2024-01-30T09:11:19;6.07;;;3.83;;
43933;SDS011;59081;42.706;23.306;2024-01-30T09:16:20;5.30;;;3.65;;
43933;SDS011;59081;42.706;23.306;2024-01-30T09:21:20;4.72;;;2.65;;
43933;SDS011;59081;42.706;23.306;2024-01-30T09:26:21;6.88;;;3.95;;
43933;SDS011;59081;42.706;23.306;2024-01-30T09:31:21;7.35;;;4.28;;
43933;SDS011;59081;42.706;23.306;2024-01-30T09:36:22;6.50;;;3.35;;
43933;SDS011;59081;42.706;23.306;2024-01-30T09:41:23;7.97;;;3.70;;
43933;SDS011;59081;42.706;23.306;2024-01-30T09:46:26;7.65;;;3.42;;
43933;SDS011;59081;42.706;23.306;2024-01-30T09:51:28;5.47;;;2.85;;
43933;SDS011;59081;42.706;23.306;2024-01-30T09:56:30;4.63;;;2.63;;
43933;SDS011;59081;42.706;23.306;2024-01-30T10:01:31;5.80;;;2.72;;
43933;SDS011;59081;42.706;23.306;2024-01-30T10:06:34;4.53;;;2.95;;
43933;SDS011;59081;42.706;23.306;2024-01-30T10:11:35;4.85;;;2.50;;
43933;SDS011;59081;42.706;23.306;2024-01-30T10:16:36;5.25;;;3.20;;
43933;SDS011;59081;42.706;23.306;2024-01-30T10:21:37;5.20;;;3.33;;
43933;SDS011;59081;42.706;23.306;2024-01-30T10:26:38;7.85;;;3.08;;
43933;SDS011;59081;42.706;23.306;2024-01-30T10:31:38;4.88;;;2.60;;
43933;SDS011;59081;42.706;23.306;2024-01-30T10:36:40;3.38;;;2.38;;
43933;SDS011;59081;42.706;23.306;2024-01-30T10:41:44;4.85;;;2.90;;
43933;SDS011;59081;42.706;23.306;2024-01-30T10:46:45;4.80;;;2.25;;
43933;SDS011;59081;42.706;23.306;2024-01-30T10:51:56;3.38;;;2.38;;
43933;SDS011;59081;42.706;23.306;2024-01-30T10:56:58;4.00;;;2.58;;
43933;SDS011;59081;42.706;23.306;2024-01-30T11:02:03;3.17;;;2.30;;
43933;SDS011;59081;42.706;23.306;2024-01-30T11:07:17;4.30;;;2.60;;
43933;SDS011;59081;42.706;23.306;2024-01-30T11:12:24;3.25;;;1.88;;
43933;SDS011;59081;42.706;23.306;2024-01-30T11:17:27;3.37;;;1.83;;
43933;SDS011;59081;42.706;23.306;2024-01-30T11:22:30;3.20;;;2.40;;
43933;SDS011;59081;42.706;23.306;2024-01-30T11:27:31;5.38;;;2.38;;
43933;SDS011;59081;42.706;23.306;2024-01-30T11:32:32;3.58;;;2.30;;
43933;SDS011;59081;42.706;23.306;2024-01-30T11:37:32;8.85;;;3.45;;
43933;SDS011;59081;42.706;23.306;2024-01-30T11:42:38;5.60;;;3.10;;
43933;SDS011;59081;42.706;23.306;2024-01-30T11:47:40;5.07;;;3.08;;
43933;SDS011;59081;42.706;23.306;2024-01-30T11:52:41;8.10;;;3.75;;
43933;SDS011;59081;42.706;23.306;2024-01-30T11:57:43;7.63;;;3.42;;
43933;SDS011;59081;42.706;23.306;2024-01-30T12:02:52;5.82;;;3.53;;
43933;SDS011;59081;42.706;23.306;2024-01-30T12:07:55;4.03;;;2.50;;
43933;SDS011;59081;42.706;23.306;2024-01-30T12:12:59;3.60;;;2.67;;
43933;SDS011;59081;42.706;23.306;2024-01-30T12:18:06;5.78;;;2.90;;
43933;SDS011;59081;42.706;23.306;2024-01-30T12:23:07;3.90;;;2.70;;
43933;SDS011;59081;42.706;23.306;2024-01-30T12:28:08;7.50;;;3.00;;
43933;SDS011;59081;42.706;23.306;2024-01-30T12:33:09;4.65;;;2.58;;
43933;SDS011;59081;42.706;23.306;2024-01-30T12:38:10;7.93;;;3.22;;
43933;SDS011;59081;42.706;23.306;2024-01-30T12:43:10;3.88;;;2.20;;
43933;SDS011;59081;42.706;23.306;2024-01-30T12:48:11;4.45;;;3.03;;
43933;SDS011;59081;42.706;23.306;2024-01-30T12:53:11;4.80;;;3.25;;
43933;SDS011;59081;42.706;23.306;2024-01-30T12:58:13;4.75;;;2.92;;
43933;SDS011;59081;42.706;23.306;2024-01-30T13:03:13;5.00;;;3.55;;
43933;SDS011;59081;42.706;23.306;2024-01-30T13:08:14;5.38;;;3.63;;
43933;SDS011;59081;42.706;23.306;2024-01-30T13:13:15;4.75;;;3.22;;
43933;SDS011;59081;42.706;23.306;2024-01-30T13:18:16;5.32;;;3.33;;
43933;SDS011;59081;42.706;23.306;2024-01-30T13:23:16;5.57;;;3.47;;
43933;SDS011;59081;42.706;23.306;2024-01-30T13:28:17;12.55;;;4.43;;
43933;SDS011;59081;42.706;23.306;2024-01-30T13:33:17;9.25;;;3.85;;
43933;SDS011;59081;42.706;23.306;2024-01-30T13:38:18;6.03;;;3.85;;
43933;SDS011;59081;42.706;23.306;2024-01-30T13:43:18;9.88;;;4.22;;
43933;SDS011;59081;42.706;23.306;2024-01-30T13:48:19;7.00;;;3.42;;
43933;SDS011;59081;42.706;23.306;2024-01-30T13:53:19;6.95;;;4.85;;
43933;SDS011;59081;42.706;23.306;2024-01-30T13:58:21;5.47;;;3.20;;
43933;SDS011;59081;42.706;23.306;2024-01-30T14:03:21;8.02;;;3.13;;
43933;SDS011;59081;42.706;23.306;2024-01-30T14:08:22;7.85;;;3.50;;
43933;SDS011;59081;42.706;23.306;2024-01-30T14:13:24;10.05;;;4.30;;
43933;SDS011;59081;42.706;23.306;2024-01-30T14:18:25;6.38;;;3.58;;
43933;SDS011;59081;42.706;23.306;2024-01-30T14:23:26;5.55;;;4.00;;
43933;SDS011;59081;42.706;23.306;2024-01-30T14:28:26;10.80;;;5.57;;
43933;SDS011;59081;42.706;23.306;2024-01-30T14:33:27;6.80;;;4.00;;
43933;SDS011;59081;42.706;23.306;2024-01-30T14:38:27;7.95;;;4.45;;
43933;SDS011;59081;42.706;23.306;2024-01-30T14:43:28;7.15;;;4.47;;
43933;SDS011;59081;42.706;23.306;2024-01-30T14:48:29;9.75;;;3.50;;
43933;SDS011;59081;42.706;23.306;2024-01-30T14:53:30;7.50;;;4.45;;
43933;SDS011;59081;42.706;23.306;2024-01-30T14:58:31;10.65;;;6.15;;
43933;SDS011;59081;42.706;23.306;2024-01-30T15:03:32;15.15;;;5.60;;
43933;SDS011;59081;42.706;23.306;2024-01-30T15:08:32;9.38;;;4.63;;
43933;SDS011;59081;42.706;23.306;2024-01-30T15:13:33;8.40;;;5.13;;
43933;SDS011;59081;42.706;23.306;2024-01-30T15:18:33;10.70;;;5.68;;
43933;SDS011;59081;42.706;23.306;2024-01-30T15:23:34;11.77;;;5.43;;
43933;SDS011;59081;42.706;23.306;2024-01-30T15:28:35;12.52;;;5.60;;
43933;SDS011;59081;42.706;23.306;2024-01-30T15:33:39;12.45;;;6.03;;
43933;SDS011;59081;42.706;23.306;2024-01-30T15:38:40;13.18;;;6.55;;
43933;SDS011;59081;42.706;23.306;2024-01-30T15:43:41;10.95;;;4.82;;
43933;SDS011;59081;42.706;23.306;2024-01-30T15:48:41;10.60;;;6.10;;
43933;SDS011;59081;42.706;23.306;2024-01-30T15:53:42;14.00;;;6.38;;
43933;SDS011;59081;42.706;23.306;2024-01-30T15:58:42;9.93;;;3.22;;
43933;SDS011;59081;42.706;23.306;2024-01-30T16:03:49;19.42;;;7.72;;
43933;SDS011;59081;42.706;23.306;2024-01-30T16:08:49;17.95;;;8.38;;
43933;SDS011;59081;42.706;23.306;2024-01-30T16:13:50;16.80;;;7.70;;
43933;SDS011;59081;42.706;23.306;2024-01-30T16:18:52;16.65;;;8.43;;
43933;SDS011;59081;42.706;23.306;2024-01-30T16:23:53;13.02;;;6.60;;
43933;SDS011;59081;42.706;23.306;2024-01-30T16:28:54;18.05;;;8.07;;
43933;SDS011;59081;42.706;23.306;2024-01-30T16:33:54;13.77;;;7.95;;
43933;SDS011;59081;42.706;23.306;2024-01-30T16:38:57;12.80;;;7.88;;
43933;SDS011;59081;42.706;23.306;2024-01-30T16:43:58;16.65;;;8.32;;
43933;SDS011;59081;42.706;23.306;2024-01-30T16:48:59;15.30;;;8.80;;
43933;SDS011;59081;42.706;23.306;2024-01-30T16:54:01;18.98;;;9.10;;
43933;SDS011;59081;42.706;23.306;2024-01-30T16:59:02;14.02;;;8.65;;
43933;SDS011;59081;42.706;23.306;2024-01-30T17:04:02;17.75;;;8.98;;
43933;SDS011;59081;42.706;23.306;2024-01-30T17:09:03;17.33;;;8.75;;
43933;SDS011;59081;42.706;23.306;2024-01-30T17:14:08;14.48;;;8.18;;
43933;SDS011;59081;42.706;23.306;2024-01-30T17:19:08;14.68;;;7.68;;
43933;SDS011;59081;42.706;23.306;2024-01-30T17:24:09;15.55;;;8.35;;
43933;SDS011;59081;42.706;23.306;2024-01-30T17:29:11;16.33;;;9.75;;
43933;SDS011;59081;42.706;23.306;2024-01-30T17:34:14;15.35;;;8.55;;
43933;SDS011;59081;42.706;23.306;2024-01-30T17:39:14;19.90;;;8.10;;
43933;SDS011;59081;42.706;23.306;2024-01-30T17:44:15;11.43;;;6.47;;
43933;SDS011;59081;42.706;23.306;2024-01-30T17:49:16;14.43;;;5.85;;
43933;SDS011;59081;42.706;23.306;2024-01-30T17:54:17;15.45;;;7.80;;
43933;SDS011;59081;42.706;23.306;2024-01-30T17:59:18;14.35;;;8.05;;
43933;SDS011;59081;42.706;23.306;2024-01-30T18:04:23;19.15;;;8.95;;
43933;SDS011;59081;42.706;23.306;2024-01-30T18:09:23;20.65;;;12.52;;
43933;SDS011;59081;42.706;23.306;2024-01-30T18:14:25;16.42;;;9.15;;
43933;SDS011;59081;42.706;23.306;2024-01-30T18:19:26;21.48;;;9.65;;
43933;SDS011;59081;42.706;23.306;2024-01-30T18:24:26;16.45;;;9.35;;
43933;SDS011;59081;42.706;23.306;2024-01-30T18:29:30;30.58;;;18.02;;
43933;SDS011;59081;42.706;23.306;2024-01-30T18:34:39;20.27;;;10.32;;
43933;SDS011;59081;42.706;23.306;2024-01-30T18:39:40;24.33;;;10.20;;
43933;SDS011;59081;42.706;23.306;2024-01-30T18:44:45;24.98;;;14.02;;
43933;SDS011;59081;42.706;23.306;2024-01-30T18:50:10;15.18;;;7.97;;
43933;SDS011;59081;42.706;23.306;2024-01-30T18:55:10;16.90;;;8.55;;
43933;SDS011;59081;42.706;23.306;2024-01-30T19:00:20;21.27;;;10.25;;
43933;SDS011;59081;42.706;23.306;2024-01-30T19:05:26;13.80;;;7.03;;
43933;SDS011;59081;42.706;23.306;2024-01-30T19:10:43;18.73;;;10.50;;
43933;SDS011;59081;42.706;23.306;2024-01-30T19:20:59;17.15;;;9.93;;
43933;SDS011;59081;42.706;23.306;2024-01-30T19:26:03;21.45;;;10.25;;
43933;SDS011;59081;42.706;23.306;2024-01-30T19:31:07;18.38;;;10.60;;
43933;SDS011;59081;42.706;23.306;2024-01-30T19:36:14;22.08;;;9.90;;
43933;SDS011;59081;42.706;23.306;2024-01-30T19:41:15;18.13;;;9.48;;
43933;SDS011;59081;42.706;23.306;2024-01-30T19:46:18;22.08;;;11.85;;
43933;SDS011;59081;42.706;23.306;2024-01-30T19:51:22;18.75;;;8.90;;
43933;SDS011;59081;42.706;23.306;2024-01-30T19:56:25;20.55;;;9.23;;
43933;SDS011;59081;42.706;23.306;2024-01-30T20:01:29;22.65;;;10.88;;
43933;SDS011;59081;42.706;23.306;2024-01-30T20:06:32;27.90;;;11.73;;
43933;SDS011;59081;42.706;23.306;2024-01-30T20:11:33;25.90;;;12.10;;
43933;SDS011;59081;42.706;23.306;2024-01-30T20:16:40;24.38;;;10.73;;
43933;SDS011;59081;42.706;23.306;2024-01-30T20:21:42;39.70;;;13.98;;
43933;SDS011;59081;42.706;23.306;2024-01-30T20:26:47;21.48;;;11.38;;
43933;SDS011;59081;42.706;23.306;2024-01-30T20:31:58;22.98;;;11.23;;
43933;SDS011;59081;42.706;23.306;2024-01-30T20:37:02;28.77;;;15.07;;
43933;SDS011;59081;42.706;23.306;2024-01-30T20:42:03;16.40;;;9.00;;
43933;SDS011;59081;42.706;23.306;2024-01-30T20:47:08;26.05;;;11.32;;
43933;SDS011;59081;42.706;23.306;2024-01-30T20:52:17;23.37;;;11.33;;
43933;SDS011;59081;42.706;23.306;2024-01-30T20:57:25;21.75;;;10.73;;
43933;SDS011;59081;42.706;23.306;2024-01-30T21:02:32;16.52;;;7.60;;
43933;SDS011;59081;42.706;23.306;2024-01-30T21:07:37;23.63;;;12.02;;
43933;SDS011;59081;42.706;23.306;2024-01-30T21:12:47;23.80;;;12.85;;
43933;SDS011;59081;42.706;23.306;2024-01-30T21:17:54;25.90;;;9.25;;
43933;SDS011;59081;42.706;23.306;2024-01-30T21:23:01;25.35;;;11.68;;
43933;SDS011;59081;42.706;23.306;2024-01-30T21:28:02;55.58;;;27.77;;
43933;SDS011;59081;42.706;23.306;2024-01-30T21:33:21;49.42;;;26.23;;
43933;SDS011;59081;42.706;23.306;2024-01-30T21:38:22;41.87;;;18.77;;
43933;SDS011;59081;42.706;23.306;2024-01-30T21:43:26;52.65;;;25.75;;
43933;SDS011;59081;42.706;23.306;2024-01-30T21:48:42;53.40;;;26.88;;
43933;SDS011;59081;42.706;23.306;2024-01-30T21:53:51;53.42;;;21.52;;
43933;SDS011;59081;42.706;23.306;2024-01-30T21:58:54;80.38;;;37.35;;
43933;SDS011;59081;42.706;23.306;2024-01-30T22:04:02;74.45;;;34.22;;
43933;SDS011;59081;42.706;23.306;2024-01-30T22:09:27;50.63;;;24.10;;
43933;SDS011;59081;42.706;23.306;2024-01-30T22:14:37;51.60;;;24.55;;
43933;SDS011;59081;42.706;23.306;2024-01-30T22:19:44;67.75;;;31.70;;
43933;SDS011;59081;42.706;23.306;2024-01-30T22:25:16;85.13;;;38.25;;
43933;SDS011;59081;42.706;23.306;2024-01-30T22:30:26;49.28;;;24.85;;
43933;SDS011;59081;42.706;23.306;2024-01-30T22:35:38;83.72;;;38.38;;
43933;SDS011;59081;42.706;23.306;2024-01-30T22:40:43;82.75;;;36.53;;
43933;SDS011;59081;42.706;23.306;2024-01-30T22:45:47;55.65;;;23.75;;
43933;SDS011;59081;42.706;23.306;2024-01-30T22:50:47;69.95;;;32.28;;
43933;SDS011;59081;42.706;23.306;2024-01-30T22:55:48;48.10;;;21.88;;
43933;SDS011;59081;42.706;23.306;2024-01-30T23:00:48;42.88;;;21.73;;
43933;SDS011;59081;42.706;23.306;2024-01-30T23:05:49;36.67;;;15.05;;
43933;SDS011;59081;42.706;23.306;2024-01-30T23:10:50;43.63;;;16.77;;
43933;SDS011;59081;42.706;23.306;2024-01-30T23:15:50;29.27;;;15.55;;
43933;SDS011;59081;42.706;23.306;2024-01-30T23:20:51;30.63;;;15.48;;
43933;SDS011;59081;42.706;23.306;2024-01-30T23:25:52;31.13;;;16.42;;
43933;SDS011;59081;42.706;23.306;2024-01-30T23:30:53;27.95;;;11.68;;
43933;SDS011;59081;42.706;23.306;2024-01-30T23:35:53;26.92;;;13.40;;
43933;SDS011;59081;42.706;23.306;2024-01-30T23:40:55;37.30;;;18.58;;
43933;SDS011;59081;42.706;23.306;2024-01-30T23:45:56;31.70;;;16.98;;
43933;SDS011;59081;42.706;23.306;2024-01-30T23:50:56;32.55;;;14.23;;
43933;SDS011;59081;42.706;23.306;2024-01-30T23:55:57;37.25;;;17.33;;
